sensor_id;sensor_type;location;lat;lon;timestamp;pressure;altitude;pressure_sealevel;temperature;humidity
14232;BME280;7200;52.194;9.900;2024-01-15T00:02:02;98495.25;;;3.33;100.00
14232;BME280;7200;52.194;9.900;2024-01-15T00:04:28;98488.09;;;3.16;100.00
14232;BME280;7200;52.194;9.900;2024-01-15T00:06:53;98491.63;;;3.37;100.00
14232;BME280;7200;52.194;9.900;2024-01-15T00:09:18;98487.41;;;3.10;100.00
14232;BME280;7200;52.194;9.900;2024-01-15T00:11:44;98480.50;;;3.09;100.00
14232;BME280;7200;52.194;9.900;2024-01-15T00:14:09;98485.91;;;3.27;100.00
14232;BME280;7200;52.194;9.900;2024-01-15T00:16:35;98475.91;;;3.16;100.00
14232;BME280;7200;52.194;9.900;2024-01-15T00:19:00;98479.69;;;3.31;100.00
14232;BME280;7200;52.194;9.900;2024-01-15T00:21:26;98462.09;;;3.36;100.00
14232;BME280;7200;52.194;9.900;2024-01-15T00:23:52;98474.59;;;3.28;100.00
14232;BME280;7200;52.194;9.900;2024-01-15T00:26:17;98474.47;;;3.31;100.00
14232;BME280;7200;52.194;9.900;2024-01-15T00:28:42;98475.56;;;3.02;100.00
14232;BME280;7200;52.194;9.900;2024-01-15T00:31:08;98467.75;;;3.02;100.00
14232;BME280;7200;52.194;9.900;2024-01-15T00:33:33;98456.03;;;3.14;100.00
14232;BME280;7200;52.194;9.900;2024-01-15T00:35:58;98448.16;;;3.15;100.00
14232;BME280;7200;52.194;9.900;2024-01-15T00:38:24;98453.50;;;3.34;100.00
14232;BME280;7200;52.194;9.900;2024-01-15T00:40:50;98456.06;;;3.12;100.00
14232;BME280;7200;52.194;9.900;2024-01-15T00:43:15;98465.75;;;3.32;100.00
14232;BME280;7200;52.194;9.900;2024-01-15T00:45:43;98455.63;;;3.24;100.00
14232;BME280;7200;52.194;9.900;2024-01-15T00:48:08;98464.81;;;3.33;100.00
14232;BME280;7200;52.194;9.900;2024-01-15T00:50:33;98468.59;;;3.48;100.00
14232;BME280;7200;52.194;9.900;2024-01-15T00:52:59;98473.72;;;3.27;100.00
14232;BME280;7200;52.194;9.900;2024-01-15T00:55:24;98466.13;;;3.45;100.00
14232;BME280;7200;52.194;9.900;2024-01-15T00:57:49;98452.56;;;3.35;100.00
14232;BME280;7200;52.194;9.900;2024-01-15T01:00:15;98440.63;;;2.84;100.00
14232;BME280;7200;52.194;9.900;2024-01-15T01:02:40;98442.84;;;2.95;100.00
14232;BME280;7200;52.194;9.900;2024-01-15T01:05:06;98440.06;;;2.99;100.00
14232;BME280;7200;52.194;9.900;2024-01-15T01:07:31;98438.69;;;3.12;100.00
14232;BME280;7200;52.194;9.900;2024-01-15T01:09:56;98439.84;;;3.05;100.00
14232;BME280;7200;52.194;9.900;2024-01-15T01:12:22;98443.69;;;2.95;100.00
14232;BME280;7200;52.194;9.900;2024-01-15T01:14:47;98438.09;;;3.06;100.00
14232;BME280;7200;52.194;9.900;2024-01-15T01:17:12;98436.09;;;2.89;100.00
14232;BME280;7200;52.194;9.900;2024-01-15T01:19:37;98441.97;;;3.18;100.00
14232;BME280;7200;52.194;9.900;2024-01-15T01:22:03;98455.78;;;3.20;100.00
14232;BME280;7200;52.194;9.900;2024-01-15T01:24:28;98420.03;;;3.23;100.00
14232;BME280;7200;52.194;9.900;2024-01-15T01:26:53;98436.22;;;3.09;100.00
14232;BME280;7200;52.194;9.900;2024-01-15T01:29:19;98425.50;;;3.17;100.00
14232;BME280;7200;52.194;9.900;2024-01-15T01:31:45;98440.22;;;3.40;100.00
14232;BME280;7200;52.194;9.900;2024-01-15T01:34:13;98431.53;;;3.18;100.00
14232;BME280;7200;52.194;9.900;2024-01-15T01:36:38;98430.84;;;3.12;100.00
14232;BME280;7200;52.194;9.900;2024-01-15T01:39:04;98436.25;;;3.31;100.00
14232;BME280;7200;52.194;9.900;2024-01-15T01:41:29;98417.25;;;3.28;100.00
14232;BME280;7200;52.194;9.900;2024-01-15T01:43:54;98425.19;;;3.25;100.00
14232;BME280;7200;52.194;9.900;2024-01-15T01:46:20;98426.22;;;3.21;100.00
14232;BME280;7200;52.194;9.900;2024-01-15T01:48:45;98427.69;;;3.28;100.00
14232;BME280;7200;52.194;9.900;2024-01-15T01:51:11;98425.81;;;3.31;100.00
14232;BME280;7200;52.194;9.900;2024-01-15T01:53:37;98425.38;;;3.42;100.00
14232;BME280;7200;52.194;9.900;2024-01-15T01:56:03;98408.88;;;3.20;100.00
14232;BME280;7200;52.194;9.900;2024-01-15T01:58:29;98411.84;;;3.33;100.00
14232;BME280;7200;52.194;9.900;2024-01-15T02:00:56;98418.34;;;3.22;100.00
14232;BME280;7200;52.194;9.900;2024-01-15T02:03:22;98423.00;;;3.36;100.00
14232;BME280;7200;52.194;9.900;2024-01-15T02:05:48;98415.91;;;3.18;100.00
14232;BME280;7200;52.194;9.900;2024-01-15T02:08:14;98413.13;;;3.22;100.00
14232;BME280;7200;52.194;9.900;2024-01-15T02:10:40;98410.59;;;3.21;100.00
14232;BME280;7200;52.194;9.900;2024-01-15T02:13:05;98403.50;;;3.24;100.00
14232;BME280;7200;52.194;9.900;2024-01-15T02:15:30;98414.94;;;3.42;100.00
14232;BME280;7200;52.194;9.900;2024-01-15T02:20:22;98414.41;;;3.34;100.00
14232;BME280;7200;52.194;9.900;2024-01-15T02:22:47;98420.94;;;3.44;100.00
14232;BME280;7200;52.194;9.900;2024-01-15T02:25:12;98411.59;;;3.39;100.00
14232;BME280;7200;52.194;9.900;2024-01-15T02:27:37;98415.94;;;3.40;100.00
14232;BME280;7200;52.194;9.900;2024-01-15T02:30:03;98415.00;;;3.41;100.00
14232;BME280;7200;52.194;9.900;2024-01-15T02:32:29;98401.78;;;3.45;100.00
14232;BME280;7200;52.194;9.900;2024-01-15T02:34:54;98409.38;;;3.51;100.00
14232;BME280;7200;52.194;9.900;2024-01-15T02:37:21;98398.34;;;3.45;100.00
14232;BME280;7200;52.194;9.900;2024-01-15T02:39:46;98405.25;;;3.46;100.00
14232;BME280;7200;52.194;9.900;2024-01-15T02:42:11;98413.38;;;3.60;100.00
14232;BME280;7200;52.194;9.900;2024-01-15T02:44:36;98404.88;;;3.55;100.00
14232;BME280;7200;52.194;9.900;2024-01-15T02:47:02;98400.66;;;3.53;100.00
14232;BME280;7200;52.194;9.900;2024-01-15T02:49:27;98394.03;;;3.44;100.00
14232;BME280;7200;52.194;9.900;2024-01-15T02:51:52;98402.16;;;3.58;100.00
14232;BME280;7200;52.194;9.900;2024-01-15T02:54:18;98395.28;;;3.56;100.00
14232;BME280;7200;52.194;9.900;2024-01-15T02:56:43;98393.81;;;3.70;100.00
14232;BME280;7200;52.194;9.900;2024-01-15T02:59:08;98407.91;;;3.66;100.00
14232;BME280;7200;52.194;9.900;2024-01-15T03:01:33;98400.75;;;3.49;100.00
14232;BME280;7200;52.194;9.900;2024-01-15T03:03:59;98412.22;;;3.67;100.00
14232;BME280;7200;52.194;9.900;2024-01-15T03:06:24;98403.66;;;3.64;100.00
14232;BME280;7200;52.194;9.900;2024-01-15T03:08:49;98418.78;;;3.76;100.00
14232;BME280;7200;52.194;9.900;2024-01-15T03:11:14;98403.56;;;3.65;100.00
14232;BME280;7200;52.194;9.900;2024-01-15T03:13:40;98398.53;;;3.83;100.00
14232;BME280;7200;52.194;9.900;2024-01-15T03:16:05;98402.78;;;3.85;100.00
14232;BME280;7200;52.194;9.900;2024-01-15T03:18:31;98393.38;;;3.39;100.00
14232;BME280;7200;52.194;9.900;2024-01-15T03:20:56;98402.28;;;3.33;100.00
14232;BME280;7200;52.194;9.900;2024-01-15T03:23:21;98402.84;;;3.41;100.00
14232;BME280;7200;52.194;9.900;2024-01-15T03:25:47;98399.13;;;3.25;100.00
14232;BME280;7200;52.194;9.900;2024-01-15T03:28:12;98412.34;;;3.42;100.00
14232;BME280;7200;52.194;9.900;2024-01-15T03:30:37;98410.28;;;3.50;100.00
14232;BME280;7200;52.194;9.900;2024-01-15T03:33:02;98404.03;;;3.33;100.00
14232;BME280;7200;52.194;9.900;2024-01-15T03:35:28;98398.72;;;3.36;100.00
14232;BME280;7200;52.194;9.900;2024-01-15T03:37:55;98400.88;;;3.46;100.00
14232;BME280;7200;52.194;9.900;2024-01-15T03:40:21;98408.47;;;3.30;100.00
14232;BME280;7200;52.194;9.900;2024-01-15T03:42:46;98411.59;;;3.39;100.00
14232;BME280;7200;52.194;9.900;2024-01-15T03:45:11;98415.44;;;3.30;100.00
14232;BME280;7200;52.194;9.900;2024-01-15T03:47:36;98403.06;;;3.35;100.00
14232;BME280;7200;52.194;9.900;2024-01-15T03:50:02;98393.19;;;3.21;100.00
14232;BME280;7200;52.194;9.900;2024-01-15T03:52:27;98401.50;;;3.53;100.00
14232;BME280;7200;52.194;9.900;2024-01-15T03:54:52;98377.28;;;3.72;100.00
14232;BME280;7200;52.194;9.900;2024-01-15T03:57:18;98385.41;;;3.64;100.00
14232;BME280;7200;52.194;9.900;2024-01-15T03:59:43;98389.44;;;3.71;100.00
14232;BME280;7200;52.194;9.900;2024-01-15T04:02:08;98393.56;;;3.56;100.00
14232;BME280;7200;52.194;9.900;2024-01-15T04:04:34;98408.22;;;3.59;100.00
14232;BME280;7200;52.194;9.900;2024-01-15T04:06:59;98407.91;;;3.44;100.00
14232;BME280;7200;52.194;9.900;2024-01-15T04:09:24;98415.50;;;3.50;100.00
14232;BME280;7200;52.194;9.900;2024-01-15T04:11:49;98406.22;;;3.43;100.00
14232;BME280;7200;52.194;9.900;2024-01-15T04:14:15;98415.09;;;3.60;100.00
14232;BME280;7200;52.194;9.900;2024-01-15T04:16:40;98429.53;;;3.68;100.00
14232;BME280;7200;52.194;9.900;2024-01-15T04:19:06;98425.56;;;3.38;100.00
14232;BME280;7200;52.194;9.900;2024-01-15T04:21:31;98406.75;;;3.51;100.00
14232;BME280;7200;52.194;9.900;2024-01-15T04:23:57;98419.63;;;3.77;100.00
14232;BME280;7200;52.194;9.900;2024-01-15T04:26:22;98434.88;;;3.65;100.00
14232;BME280;7200;52.194;9.900;2024-01-15T04:28:47;98416.03;;;3.59;100.00
14232;BME280;7200;52.194;9.900;2024-01-15T04:31:25;98425.91;;;3.93;100.00
14232;BME280;7200;52.194;9.900;2024-01-15T04:33:52;98421.78;;;3.67;100.00
14232;BME280;7200;52.194;9.900;2024-01-15T04:36:17;98416.19;;;3.54;100.00
14232;BME280;7200;52.194;9.900;2024-01-15T04:38:42;98416.91;;;3.80;100.00
14232;BME280;7200;52.194;9.900;2024-01-15T04:41:15;98405.81;;;3.75;100.00
14232;BME280;7200;52.194;9.900;2024-01-15T04:43:41;98403.47;;;3.68;100.00
14232;BME280;7200;52.194;9.900;2024-01-15T04:46:06;98409.25;;;3.55;100.00
14232;BME280;7200;52.194;9.900;2024-01-15T04:48:32;98398.31;;;3.67;100.00
14232;BME280;7200;52.194;9.900;2024-01-15T04:50:58;98393.09;;;3.67;100.00
14232;BME280;7200;52.194;9.900;2024-01-15T04:53:23;98404.06;;;3.75;100.00
14232;BME280;7200;52.194;9.900;2024-01-15T04:55:48;98403.41;;;3.70;100.00
14232;BME280;7200;52.194;9.900;2024-01-15T04:58:13;98396.97;;;3.79;100.00
14232;BME280;7200;52.194;9.900;2024-01-15T05:00:39;98402.50;;;3.92;100.00
14232;BME280;7200;52.194;9.900;2024-01-15T05:03:04;98394.41;;;3.77;100.00
14232;BME280;7200;52.194;9.900;2024-01-15T05:05:29;98404.03;;;3.55;100.00
14232;BME280;7200;52.194;9.900;2024-01-15T05:07:54;98397.03;;;3.98;100.00
14232;BME280;7200;52.194;9.900;2024-01-15T05:10:20;98391.56;;;3.83;100.00
14232;BME280;7200;52.194;9.900;2024-01-15T05:12:45;98379.56;;;3.79;100.00
14232;BME280;7200;52.194;9.900;2024-01-15T05:15:10;98387.69;;;3.72;100.00
14232;BME280;7200;52.194;9.900;2024-01-15T05:17:36;98384.63;;;3.62;100.00
14232;BME280;7200;52.194;9.900;2024-01-15T05:20:01;98383.38;;;3.28;100.00
14232;BME280;7200;52.194;9.900;2024-01-15T05:22:27;98390.34;;;3.27;100.00
14232;BME280;7200;52.194;9.900;2024-01-15T05:24:53;98391.25;;;3.26;100.00
14232;BME280;7200;52.194;9.900;2024-01-15T05:27:18;98395.44;;;3.30;100.00
14232;BME280;7200;52.194;9.900;2024-01-15T05:29:43;98397.00;;;3.35;100.00
14232;BME280;7200;52.194;9.900;2024-01-15T05:32:08;98406.91;;;3.26;100.00
14232;BME280;7200;52.194;9.900;2024-01-15T05:34:34;98399.13;;;3.25;100.00
14232;BME280;7200;52.194;9.900;2024-01-15T05:37:00;98398.91;;;3.09;100.00
14232;BME280;7200;52.194;9.900;2024-01-15T05:39:25;98400.16;;;3.21;100.00
14232;BME280;7200;52.194;9.900;2024-01-15T05:41:50;98402.88;;;3.18;100.00
14232;BME280;7200;52.194;9.900;2024-01-15T05:44:16;98396.56;;;3.01;100.00
14232;BME280;7200;52.194;9.900;2024-01-15T05:46:41;98390.03;;;3.13;100.00
14232;BME280;7200;52.194;9.900;2024-01-15T05:49:06;98388.34;;;3.12;100.00
14232;BME280;7200;52.194;9.900;2024-01-15T05:51:31;98378.19;;;3.28;100.00
14232;BME280;7200;52.194;9.900;2024-01-15T05:53:57;98386.34;;;3.19;100.00
14232;BME280;7200;52.194;9.900;2024-01-15T05:56:22;98366.81;;;3.07;100.00
14232;BME280;7200;52.194;9.900;2024-01-15T05:58:49;98365.94;;;3.30;100.00
14232;BME280;7200;52.194;9.900;2024-01-15T06:01:14;98384.59;;;3.19;100.00
14232;BME280;7200;52.194;9.900;2024-01-15T06:03:39;98363.75;;;3.19;100.00
14232;BME280;7200;52.194;9.900;2024-01-15T06:06:05;98372.19;;;3.26;100.00
14232;BME280;7200;52.194;9.900;2024-01-15T06:08:30;98370.63;;;3.42;100.00
14232;BME280;7200;52.194;9.900;2024-01-15T06:10:56;98368.59;;;3.28;100.00
14232;BME280;7200;52.194;9.900;2024-01-15T06:13:21;98373.38;;;3.39;100.00
14232;BME280;7200;52.194;9.900;2024-01-15T06:15:46;98375.66;;;3.47;100.00
14232;BME280;7200;52.194;9.900;2024-01-15T06:18:12;98369.69;;;3.65;100.00
14232;BME280;7200;52.194;9.900;2024-01-15T06:20:37;98373.44;;;3.38;100.00
14232;BME280;7200;52.194;9.900;2024-01-15T06:23:03;98363.84;;;3.38;100.00
14232;BME280;7200;52.194;9.900;2024-01-15T06:25:29;98373.75;;;3.30;100.00
14232;BME280;7200;52.194;9.900;2024-01-15T06:27:54;98363.72;;;2.97;100.00
14232;BME280;7200;52.194;9.900;2024-01-15T06:30:19;98362.16;;;2.93;100.00
14232;BME280;7200;52.194;9.900;2024-01-15T06:32:45;98368.78;;;3.02;100.00
14232;BME280;7200;52.194;9.900;2024-01-15T06:35:10;98378.09;;;3.07;100.00
14232;BME280;7200;52.194;9.900;2024-01-15T06:37:37;98380.88;;;3.03;100.00
14232;BME280;7200;52.194;9.900;2024-01-15T06:40:03;98382.44;;;3.07;100.00
14232;BME280;7200;52.194;9.900;2024-01-15T06:42:28;98386.03;;;3.04;100.00
14232;BME280;7200;52.194;9.900;2024-01-15T06:44:53;98386.47;;;3.38;100.00
14232;BME280;7200;52.194;9.900;2024-01-15T06:47:19;98382.28;;;3.34;100.00
14232;BME280;7200;52.194;9.900;2024-01-15T06:49:44;98380.16;;;3.21;100.00
14232;BME280;7200;52.194;9.900;2024-01-15T06:52:09;98395.63;;;3.26;100.00
14232;BME280;7200;52.194;9.900;2024-01-15T06:54:36;98390.94;;;3.34;100.00
14232;BME280;7200;52.194;9.900;2024-01-15T06:57:02;98395.75;;;3.45;100.00
14232;BME280;7200;52.194;9.900;2024-01-15T06:59:27;98405.13;;;3.49;100.00
14232;BME280;7200;52.194;9.900;2024-01-15T07:01:52;98398.94;;;3.51;100.00
14232;BME280;7200;52.194;9.900;2024-01-15T07:04:18;98391.63;;;3.60;100.00
14232;BME280;7200;52.194;9.900;2024-01-15T07:06:43;98388.25;;;3.58;100.00
14232;BME280;7200;52.194;9.900;2024-01-15T07:09:08;98387.13;;;3.43;100.00
14232;BME280;7200;52.194;9.900;2024-01-15T07:11:34;98388.13;;;3.61;100.00
14232;BME280;7200;52.194;9.900;2024-01-15T07:13:59;98388.81;;;3.44;100.00
14232;BME280;7200;52.194;9.900;2024-01-15T07:16:24;98395.47;;;3.73;100.00
14232;BME280;7200;52.194;9.900;2024-01-15T07:18:50;98397.31;;;3.49;100.00
14232;BME280;7200;52.194;9.900;2024-01-15T07:21:15;98399.56;;;3.36;100.00
14232;BME280;7200;52.194;9.900;2024-01-15T07:23:40;98393.91;;;3.47;100.00
14232;BME280;7200;52.194;9.900;2024-01-15T07:26:07;98388.59;;;3.28;100.00
14232;BME280;7200;52.194;9.900;2024-01-15T07:28:32;98385.47;;;3.18;100.00
14232;BME280;7200;52.194;9.900;2024-01-15T07:30:58;98404.69;;;3.16;100.00
14232;BME280;7200;52.194;9.900;2024-01-15T07:33:23;98389.69;;;3.22;100.00
14232;BME280;7200;52.194;9.900;2024-01-15T07:35:48;98401.69;;;3.26;100.00
14232;BME280;7200;52.194;9.900;2024-01-15T07:38:13;98399.69;;;3.11;100.00
14232;BME280;7200;52.194;9.900;2024-01-15T07:40:39;98396.34;;;3.07;100.00
14232;BME280;7200;52.194;9.900;2024-01-15T07:43:04;98399.31;;;3.20;100.00
14232;BME280;7200;52.194;9.900;2024-01-15T07:45:30;98407.31;;;3.16;100.00
14232;BME280;7200;52.194;9.900;2024-01-15T07:47:55;98401.91;;;2.98;100.00
14232;BME280;7200;52.194;9.900;2024-01-15T07:50:20;98395.22;;;3.15;100.00
14232;BME280;7200;52.194;9.900;2024-01-15T07:52:46;98397.72;;;3.16;100.00
14232;BME280;7200;52.194;9.900;2024-01-15T07:55:11;98402.59;;;3.03;100.00
14232;BME280;7200;52.194;9.900;2024-01-15T07:57:36;98401.66;;;3.04;100.00
14232;BME280;7200;52.194;9.900;2024-01-15T08:00:03;98401.56;;;3.07;100.00
14232;BME280;7200;52.194;9.900;2024-01-15T08:02:30;98409.13;;;3.14;100.00
14232;BME280;7200;52.194;9.900;2024-01-15T08:04:57;98407.22;;;2.95;100.00
14232;BME280;7200;52.194;9.900;2024-01-15T08:07:23;98398.81;;;2.88;100.00
14232;BME280;7200;52.194;9.900;2024-01-15T08:09:48;98406.16;;;3.23;100.00
14232;BME280;7200;52.194;9.900;2024-01-15T08:12:14;98405.53;;;3.16;100.00
14232;BME280;7200;52.194;9.900;2024-01-15T08:14:39;98394.44;;;3.33;100.00
14232;BME280;7200;52.194;9.900;2024-01-15T08:17:05;98402.53;;;3.27;100.00
14232;BME280;7200;52.194;9.900;2024-01-15T08:19:30;98404.97;;;3.31;100.00
14232;BME280;7200;52.194;9.900;2024-01-15T08:21:56;98409.69;;;3.44;100.00
14232;BME280;7200;52.194;9.900;2024-01-15T08:24:21;98408.09;;;3.40;100.00
14232;BME280;7200;52.194;9.900;2024-01-15T08:26:47;98405.09;;;3.05;100.00
14232;BME280;7200;52.194;9.900;2024-01-15T08:29:12;98412.09;;;3.04;100.00
14232;BME280;7200;52.194;9.900;2024-01-15T08:31:37;98406.53;;;2.90;100.00
14232;BME280;7200;52.194;9.900;2024-01-15T08:34:03;98407.84;;;3.24;100.00
14232;BME280;7200;52.194;9.900;2024-01-15T08:36:28;98398.59;;;3.17;100.00
14232;BME280;7200;52.194;9.900;2024-01-15T08:38:56;98401.66;;;3.04;100.00
14232;BME280;7200;52.194;9.900;2024-01-15T08:41:22;98407.16;;;3.20;100.00
14232;BME280;7200;52.194;9.900;2024-01-15T08:43:47;98409.81;;;3.19;100.00
14232;BME280;7200;52.194;9.900;2024-01-15T08:46:12;98409.13;;;3.14;100.00
14232;BME280;7200;52.194;9.900;2024-01-15T08:48:38;98416.63;;;3.21;100.00
14232;BME280;7200;52.194;9.900;2024-01-15T08:51:03;98416.19;;;3.34;100.00
14232;BME280;7200;52.194;9.900;2024-01-15T08:53:29;98409.91;;;3.16;100.00
14232;BME280;7200;52.194;9.900;2024-01-15T08:55:54;98417.56;;;3.20;100.00
14232;BME280;7200;52.194;9.900;2024-01-15T08:58:19;98422.22;;;3.12;100.00
14232;BME280;7200;52.194;9.900;2024-01-15T09:00:44;98415.44;;;3.30;100.00
14232;BME280;7200;52.194;9.900;2024-01-15T09:03:10;98412.03;;;3.06;100.00
14232;BME280;7200;52.194;9.900;2024-01-15T09:05:35;98404.81;;;3.12;100.00
14232;BME280;7200;52.194;9.900;2024-01-15T09:08:00;98406.56;;;3.12;100.00
14232;BME280;7200;52.194;9.900;2024-01-15T09:10:26;98416.03;;;3.37;100.00
14232;BME280;7200;52.194;9.900;2024-01-15T09:12:51;98419.72;;;3.31;100.00
14232;BME280;7200;52.194;9.900;2024-01-15T09:15:16;98421.25;;;3.37;100.00
14232;BME280;7200;52.194;9.900;2024-01-15T09:17:42;98414.41;;;3.34;100.00
14232;BME280;7200;52.194;9.900;2024-01-15T09:20:08;98437.19;;;3.29;100.00
14232;BME280;7200;52.194;9.900;2024-01-15T09:22:35;98410.75;;;3.38;100.00
14232;BME280;7200;52.194;9.900;2024-01-15T09:25:00;98421.41;;;3.54;100.00
14232;BME280;7200;52.194;9.900;2024-01-15T09:27:25;98428.09;;;3.61;100.00
14232;BME280;7200;52.194;9.900;2024-01-15T09:29:54;98424.28;;;3.26;100.00
14232;BME280;7200;52.194;9.900;2024-01-15T09:32:19;98415.66;;;3.24;100.00
14232;BME280;7200;52.194;9.900;2024-01-15T09:34:47;98423.84;;;3.37;100.00
14232;BME280;7200;52.194;9.900;2024-01-15T09:37:15;98433.91;;;3.46;100.00
14232;BME280;7200;52.194;9.900;2024-01-15T09:39:41;98440.06;;;3.45;100.00
14232;BME280;7200;52.194;9.900;2024-01-15T09:42:07;98437.19;;;3.73;100.00
14232;BME280;7200;52.194;9.900;2024-01-15T09:44:33;98437.72;;;3.59;100.00
14232;BME280;7200;52.194;9.900;2024-01-15T09:46:58;98438.28;;;3.45;100.00
14232;BME280;7200;52.194;9.900;2024-01-15T09:49:24;98438.22;;;3.69;100.00
14232;BME280;7200;52.194;9.900;2024-01-15T09:51:49;98450.09;;;3.54;100.00
14232;BME280;7200;52.194;9.900;2024-01-15T09:54:18;98444.09;;;3.74;100.00
14232;BME280;7200;52.194;9.900;2024-01-15T09:56:47;98452.16;;;4.10;100.00
14232;BME280;7200;52.194;9.900;2024-01-15T09:59:19;98455.22;;;4.00;100.00
14232;BME280;7200;52.194;9.900;2024-01-15T10:01:45;98448.31;;;3.99;100.00
14232;BME280;7200;52.194;9.900;2024-01-15T10:04:13;98451.13;;;4.35;100.00
14232;BME280;7200;52.194;9.900;2024-01-15T10:06:43;98450.66;;;4.46;100.00
14232;BME280;7200;52.194;9.900;2024-01-15T10:09:14;98458.31;;;3.87;100.00
14232;BME280;7200;52.194;9.900;2024-01-15T10:11:41;98468.16;;;4.23;100.00
14232;BME280;7200;52.194;9.900;2024-01-15T10:14:08;98460.16;;;3.85;100.00
14232;BME280;7200;52.194;9.900;2024-01-15T10:16:33;98468.28;;;3.78;100.00
14232;BME280;7200;52.194;9.900;2024-01-15T10:18:58;98482.19;;;3.10;100.00
14232;BME280;7200;52.194;9.900;2024-01-15T10:21:24;98488.72;;;2.75;100.00
14232;BME280;7200;52.194;9.900;2024-01-15T10:23:51;98475.09;;;2.67;100.00
14232;BME280;7200;52.194;9.900;2024-01-15T10:26:17;98466.66;;;2.60;100.00
14232;BME280;7200;52.194;9.900;2024-01-15T10:28:42;98453.41;;;2.90;100.00
14232;BME280;7200;52.194;9.900;2024-01-15T10:31:07;98458.38;;;2.98;100.00
14232;BME280;7200;52.194;9.900;2024-01-15T10:33:33;98444.91;;;2.86;100.00
14232;BME280;7200;52.194;9.900;2024-01-15T10:36:00;98449.47;;;3.03;100.00
14232;BME280;7200;52.194;9.900;2024-01-15T10:38:25;98441.38;;;3.33;100.00
14232;BME280;7200;52.194;9.900;2024-01-15T10:40:54;98450.97;;;3.55;100.00
14232;BME280;7200;52.194;9.900;2024-01-15T10:43:20;98441.56;;;3.28;100.00
14232;BME280;7200;52.194;9.900;2024-01-15T10:45:50;98451.31;;;3.45;100.00
14232;BME280;7200;52.194;9.900;2024-01-15T10:48:18;98459.16;;;3.45;100.00
14232;BME280;7200;52.194;9.900;2024-01-15T10:50:45;98459.25;;;3.42;100.00
14232;BME280;7200;52.194;9.900;2024-01-15T10:53:13;98460.53;;;3.76;100.00
14232;BME280;7200;52.194;9.900;2024-01-15T10:55:38;98467.41;;;3.79;100.00
14232;BME280;7200;52.194;9.900;2024-01-15T10:58:05;98461.56;;;3.50;100.00
14232;BME280;7200;52.194;9.900;2024-01-15T11:00:33;98462.25;;;3.77;100.00
14232;BME280;7200;52.194;9.900;2024-01-15T11:03:01;98450.25;;;3.51;100.00
14232;BME280;7200;52.194;9.900;2024-01-15T11:05:27;98468.72;;;3.67;100.00
14232;BME280;7200;52.194;9.900;2024-01-15T11:07:55;98457.91;;;3.76;100.00
14232;BME280;7200;52.194;9.900;2024-01-15T11:13:09;98458.13;;;3.72;100.00
14232;BME280;7200;52.194;9.900;2024-01-15T11:15:57;98446.59;;;3.55;100.00
14232;BME280;7200;52.194;9.900;2024-01-15T11:18:23;98452.44;;;3.62;100.00
14232;BME280;7200;52.194;9.900;2024-01-15T11:23:55;98460.53;;;3.76;100.00
14232;BME280;7200;52.194;9.900;2024-01-15T11:26:36;98456.03;;;3.80;100.00
14232;BME280;7200;52.194;9.900;2024-01-15T11:34:10;98442.63;;;3.89;100.00
14232;BME280;7200;52.194;9.900;2024-01-15T11:39:39;98442.16;;;3.57;100.00
14232;BME280;7200;52.194;9.900;2024-01-15T11:42:04;98438.88;;;3.52;100.00
14232;BME280;7200;52.194;9.900;2024-01-15T11:44:30;98430.09;;;3.55;100.00
14232;BME280;7200;52.194;9.900;2024-01-15T11:47:01;98424.75;;;3.80;100.00
14232;BME280;7200;52.194;9.900;2024-01-15T11:52:20;98427.81;;;3.89;100.00
14232;BME280;7200;52.194;9.900;2024-01-15T11:57:46;98424.41;;;3.87;100.00
14232;BME280;7200;52.194;9.900;2024-01-15T12:00:13;98420.56;;;3.76;100.00
14232;BME280;7200;52.194;9.900;2024-01-15T12:02:43;98427.59;;;3.74;100.00
14232;BME280;7200;52.194;9.900;2024-01-15T12:05:09;98415.94;;;3.82;100.00
14232;BME280;7200;52.194;9.900;2024-01-15T12:07:35;98413.72;;;3.73;100.00
14232;BME280;7200;52.194;9.900;2024-01-15T12:10:02;98416.09;;;3.57;100.00
14232;BME280;7200;52.194;9.900;2024-01-15T12:12:37;98415.19;;;3.58;100.00
14232;BME280;7200;52.194;9.900;2024-01-15T12:15:04;98427.00;;;3.67;100.00
14232;BME280;7200;52.194;9.900;2024-01-15T12:17:30;98417.72;;;3.60;100.00
14232;BME280;7200;52.194;9.900;2024-01-15T12:19:56;98418.94;;;3.94;100.00
14232;BME280;7200;52.194;9.900;2024-01-15T12:22:22;98421.69;;;3.90;100.00
14232;BME280;7200;52.194;9.900;2024-01-15T12:24:47;98421.41;;;3.76;100.00
14232;BME280;7200;52.194;9.900;2024-01-15T12:27:12;98428.31;;;3.77;100.00
14232;BME280;7200;52.194;9.900;2024-01-15T12:29:38;98419.56;;;3.78;100.00
14232;BME280;7200;52.194;9.900;2024-01-15T12:32:04;98417.13;;;3.75;100.00
14232;BME280;7200;52.194;9.900;2024-01-15T12:34:30;98421.03;;;3.63;100.00
14232;BME280;7200;52.194;9.900;2024-01-15T12:36:57;98435.09;;;4.03;100.00
14232;BME280;7200;52.194;9.900;2024-01-15T12:39:22;98429.53;;;3.90;100.00
14232;BME280;7200;52.194;9.900;2024-01-15T12:41:48;98434.53;;;3.95;100.00
14232;BME280;7200;52.194;9.900;2024-01-15T12:44:13;98425.16;;;3.69;100.00
14232;BME280;7200;52.194;9.900;2024-01-15T12:46:38;98428.38;;;3.76;100.00
14232;BME280;7200;52.194;9.900;2024-01-15T12:49:04;98415.41;;;3.74;100.00
14232;BME280;7200;52.194;9.900;2024-01-15T12:51:29;98429.19;;;3.98;100.00
14232;BME280;7200;52.194;9.900;2024-01-15T12:53:54;98425.00;;;3.74;100.00
14232;BME280;7200;52.194;9.900;2024-01-15T12:56:20;98427.53;;;3.75;100.00
14232;BME280;7200;52.194;9.900;2024-01-15T12:58:45;98425.78;;;3.76;100.00
14232;BME280;7200;52.194;9.900;2024-01-15T13:01:10;98422.50;;;3.70;100.00
14232;BME280;7200;52.194;9.900;2024-01-15T13:03:37;98431.38;;;3.66;100.00
14232;BME280;7200;52.194;9.900;2024-01-15T13:06:02;98424.78;;;3.78;100.00
14232;BME280;7200;52.194;9.900;2024-01-15T13:08:27;98422.66;;;3.67;100.00
14232;BME280;7200;52.194;9.900;2024-01-15T13:10:55;98420.53;;;3.55;100.00
14232;BME280;7200;52.194;9.900;2024-01-15T13:13:22;98431.72;;;3.79;100.00
14232;BME280;7200;52.194;9.900;2024-01-15T13:15:47;98429.78;;;3.84;100.00
14232;BME280;7200;52.194;9.900;2024-01-15T13:18:12;98439.13;;;3.68;100.00
14232;BME280;7200;52.194;9.900;2024-01-15T13:20:38;98429.63;;;3.45;100.00
14232;BME280;7200;52.194;9.900;2024-01-15T13:23:03;98434.72;;;3.90;100.00
14232;BME280;7200;52.194;9.900;2024-01-15T13:25:29;98435.81;;;3.64;100.00